Portada
METAR-TAF:

METAR-TAF

Aeroports :

Lanzhou, Xina

latitud: 36-02N, longitud: 103-52E, altitud: 1518 m

Observació

L'informe es va fer fa 56 minuts, a les 01:00 UTC
Vent 4 kt del Nord-Oest
Temperatura -15°C
Humitat 42%
Pressió 1024 hPa
Visibilitat 10 km o més
sense núvols per sota de 1500 mi sense presència de cumulonimbus.

METAR: ZLLL 290100Z 32002MPS CAVOK M15/M25 Q1024 NOSIG

Hora: 09:56 (01:56 UTC)

Pronòstic

L'informe es va fer fa 4 hores i 51 minuts, a les 21:05 UTC
Pronòstic vàlid del 29 a les 00 UTC al 29 a les 24 UTC
Vent 6 kt del Sud/Sud-Est
Visibilitat: 6000 m

TAF: ZLLL 282105Z 2900/2924 16003MPS 6000 NSC TX03/2908Z TNM17/2900Z

Observacions i pronòstics meteorològics de més de 4000 aeroports (METAR i TAF).

Les estacions disponibles són els punts grocs i vermells al mapa.

Posi el ratolí al punt desitjat per veure el nom de l'estació.

Feu clic per veure les observacions i els pronòstics meteorològics.

Per canviar el mapa: feu clic els botons verds amb una creu de color negre per apropar; al botó verd amb un guió per allunyar la imatge; o en les fletxes verdes per a mapes adjacents.


METAR-TAF: